sensor_id;sensor_type;location;lat;lon;timestamp;P1;durP1;ratioP1;P2;durP2;ratioP2
68449;SDS011;55434;39.570;2.652;2022-07-29T00:01:05;8.73;;;3.33;;
68449;SDS011;55434;39.570;2.652;2022-07-29T00:03:31;10.43;;;3.75;;
68449;SDS011;55434;39.570;2.652;2022-07-29T00:05:57;8.10;;;3.57;;
68449;SDS011;55434;39.570;2.652;2022-07-29T00:08:25;9.50;;;3.28;;
68449;SDS011;55434;39.570;2.652;2022-07-29T00:10:50;10.37;;;3.60;;
68449;SDS011;55434;39.570;2.652;2022-07-29T00:13:16;11.13;;;3.77;;
68449;SDS011;55434;39.570;2.652;2022-07-29T00:15:42;10.02;;;3.70;;
68449;SDS011;55434;39.570;2.652;2022-07-29T00:18:07;8.47;;;3.70;;
68449;SDS011;55434;39.570;2.652;2022-07-29T00:20:33;10.80;;;3.90;;
68449;SDS011;55434;39.570;2.652;2022-07-29T00:22:58;11.43;;;4.78;;
68449;SDS011;55434;39.570;2.652;2022-07-29T00:25:24;10.33;;;3.70;;
68449;SDS011;55434;39.570;2.652;2022-07-29T00:27:50;8.32;;;3.90;;
68449;SDS011;55434;39.570;2.652;2022-07-29T00:30:15;8.73;;;3.27;;
68449;SDS011;55434;39.570;2.652;2022-07-29T00:32:41;12.00;;;3.43;;
68449;SDS011;55434;39.570;2.652;2022-07-29T00:35:07;37.00;;;4.30;;
68449;SDS011;55434;39.570;2.652;2022-07-29T00:37:51;10.32;;;3.85;;
68449;SDS011;55434;39.570;2.652;2022-07-29T00:40:16;10.70;;;3.60;;
68449;SDS011;55434;39.570;2.652;2022-07-29T00:42:43;9.53;;;3.60;;
68449;SDS011;55434;39.570;2.652;2022-07-29T00:45:13;9.95;;;3.28;;
68449;SDS011;55434;39.570;2.652;2022-07-29T00:47:38;8.82;;;3.40;;
68449;SDS011;55434;39.570;2.652;2022-07-29T00:50:04;9.53;;;3.60;;
68449;SDS011;55434;39.570;2.652;2022-07-29T00:52:33;10.57;;;3.92;;
68449;SDS011;55434;39.570;2.652;2022-07-29T00:55:00;8.98;;;3.35;;
68449;SDS011;55434;39.570;2.652;2022-07-29T00:57:27;10.23;;;3.50;;
68449;SDS011;55434;39.570;2.652;2022-07-29T00:59:52;13.30;;;3.80;;
68449;SDS011;55434;39.570;2.652;2022-07-29T01:02:18;12.47;;;3.77;;
68449;SDS011;55434;39.570;2.652;2022-07-29T01:04:43;9.10;;;3.63;;
68449;SDS011;55434;39.570;2.652;2022-07-29T01:07:09;10.80;;;3.63;;
68449;SDS011;55434;39.570;2.652;2022-07-29T01:09:40;9.90;;;3.88;;
68449;SDS011;55434;39.570;2.652;2022-07-29T01:12:18;9.70;;;3.67;;
68449;SDS011;55434;39.570;2.652;2022-07-29T01:14:53;10.50;;;3.42;;
68449;SDS011;55434;39.570;2.652;2022-07-29T01:23:36;10.88;;;3.53;;
68449;SDS011;55434;39.570;2.652;2022-07-29T01:29:02;9.70;;;3.42;;
68449;SDS011;55434;39.570;2.652;2022-07-29T01:32:37;9.93;;;4.03;;
68449;SDS011;55434;39.570;2.652;2022-07-29T01:34:41;11.77;;;4.38;;
68449;SDS011;55434;39.570;2.652;2022-07-29T01:37:12;8.77;;;4.40;;
68449;SDS011;55434;39.570;2.652;2022-07-29T01:39:42;9.07;;;3.25;;
68449;SDS011;55434;39.570;2.652;2022-07-29T01:42:26;10.85;;;3.60;;
68449;SDS011;55434;39.570;2.652;2022-07-29T01:44:59;12.00;;;4.40;;
68449;SDS011;55434;39.570;2.652;2022-07-29T01:47:26;14.52;;;3.90;;
68449;SDS011;55434;39.570;2.652;2022-07-29T01:49:58;11.10;;;3.85;;
68449;SDS011;55434;39.570;2.652;2022-07-29T01:52:46;11.10;;;3.80;;
68449;SDS011;55434;39.570;2.652;2022-07-29T01:55:28;9.38;;;3.60;;
68449;SDS011;55434;39.570;2.652;2022-07-29T01:57:56;10.30;;;3.70;;
68449;SDS011;55434;39.570;2.652;2022-07-29T02:00:23;11.43;;;3.97;;
68449;SDS011;55434;39.570;2.652;2022-07-29T02:02:51;12.73;;;3.95;;
68449;SDS011;55434;39.570;2.652;2022-07-29T02:05:18;11.32;;;3.90;;
68449;SDS011;55434;39.570;2.652;2022-07-29T02:07:48;11.07;;;3.90;;
68449;SDS011;55434;39.570;2.652;2022-07-29T02:10:16;10.80;;;3.87;;
68449;SDS011;55434;39.570;2.652;2022-07-29T02:12:44;11.40;;;4.22;;
68449;SDS011;55434;39.570;2.652;2022-07-29T02:15:12;12.55;;;4.25;;
68449;SDS011;55434;39.570;2.652;2022-07-29T02:17:41;11.68;;;4.25;;
68449;SDS011;55434;39.570;2.652;2022-07-29T02:20:09;13.23;;;4.45;;
68449;SDS011;55434;39.570;2.652;2022-07-29T02:22:36;12.37;;;4.23;;
68449;SDS011;55434;39.570;2.652;2022-07-29T02:25:04;9.15;;;3.95;;
68449;SDS011;55434;39.570;2.652;2022-07-29T02:27:31;17.85;;;4.45;;
68449;SDS011;55434;39.570;2.652;2022-07-29T02:30:00;11.27;;;4.18;;
68449;SDS011;55434;39.570;2.652;2022-07-29T02:32:27;9.23;;;3.80;;
68449;SDS011;55434;39.570;2.652;2022-07-29T02:34:54;11.67;;;3.83;;
68449;SDS011;55434;39.570;2.652;2022-07-29T02:37:21;12.27;;;3.97;;
68449;SDS011;55434;39.570;2.652;2022-07-29T02:39:48;9.98;;;3.88;;
68449;SDS011;55434;39.570;2.652;2022-07-29T02:42:17;13.25;;;4.00;;
68449;SDS011;55434;39.570;2.652;2022-07-29T02:44:43;15.45;;;4.30;;
68449;SDS011;55434;39.570;2.652;2022-07-29T02:49:42;8.18;;;3.42;;
68449;SDS011;55434;39.570;2.652;2022-07-29T02:58:01;11.43;;;3.67;;
68449;SDS011;55434;39.570;2.652;2022-07-29T03:00:31;9.75;;;3.67;;
68449;SDS011;55434;39.570;2.652;2022-07-29T03:03:00;9.40;;;3.83;;
68449;SDS011;55434;39.570;2.652;2022-07-29T03:05:32;13.30;;;4.18;;
68449;SDS011;55434;39.570;2.652;2022-07-29T03:08:00;11.63;;;3.85;;
68449;SDS011;55434;39.570;2.652;2022-07-29T03:10:29;11.97;;;3.43;;
68449;SDS011;55434;39.570;2.652;2022-07-29T03:12:56;9.65;;;4.00;;
68449;SDS011;55434;39.570;2.652;2022-07-29T03:15:22;7.88;;;3.83;;
68449;SDS011;55434;39.570;2.652;2022-07-29T03:17:49;9.95;;;4.13;;
68449;SDS011;55434;39.570;2.652;2022-07-29T03:20:15;10.98;;;4.07;;
68449;SDS011;55434;39.570;2.652;2022-07-29T03:22:42;12.40;;;4.03;;
68449;SDS011;55434;39.570;2.652;2022-07-29T03:25:11;11.32;;;4.05;;
68449;SDS011;55434;39.570;2.652;2022-07-29T03:27:38;12.15;;;4.05;;
68449;SDS011;55434;39.570;2.652;2022-07-29T03:30:04;10.23;;;4.03;;
68449;SDS011;55434;39.570;2.652;2022-07-29T03:32:31;10.85;;;4.57;;
68449;SDS011;55434;39.570;2.652;2022-07-29T03:34:56;8.90;;;4.00;;
68449;SDS011;55434;39.570;2.652;2022-07-29T03:37:22;10.40;;;4.55;;
68449;SDS011;55434;39.570;2.652;2022-07-29T03:39:48;13.73;;;4.47;;
68449;SDS011;55434;39.570;2.652;2022-07-29T03:42:16;10.60;;;3.88;;
68449;SDS011;55434;39.570;2.652;2022-07-29T03:44:47;10.57;;;4.10;;
68449;SDS011;55434;39.570;2.652;2022-07-29T03:47:15;11.43;;;4.27;;
68449;SDS011;55434;39.570;2.652;2022-07-29T03:49:44;11.85;;;4.28;;
68449;SDS011;55434;39.570;2.652;2022-07-29T03:52:13;9.95;;;3.88;;
68449;SDS011;55434;39.570;2.652;2022-07-29T03:54:38;18.27;;;4.33;;
68449;SDS011;55434;39.570;2.652;2022-07-29T03:57:05;9.63;;;4.13;;
68449;SDS011;55434;39.570;2.652;2022-07-29T03:59:32;14.30;;;4.40;;
68449;SDS011;55434;39.570;2.652;2022-07-29T04:01:59;9.50;;;4.07;;
68449;SDS011;55434;39.570;2.652;2022-07-29T04:04:27;11.00;;;4.65;;
68449;SDS011;55434;39.570;2.652;2022-07-29T04:06:53;11.30;;;4.27;;
68449;SDS011;55434;39.570;2.652;2022-07-29T04:09:18;9.67;;;4.33;;
68449;SDS011;55434;39.570;2.652;2022-07-29T04:11:44;9.73;;;4.53;;
68449;SDS011;55434;39.570;2.652;2022-07-29T04:14:10;12.00;;;4.40;;
68449;SDS011;55434;39.570;2.652;2022-07-29T04:16:36;12.80;;;3.83;;
68449;SDS011;55434;39.570;2.652;2022-07-29T04:19:01;11.33;;;4.33;;
68449;SDS011;55434;39.570;2.652;2022-07-29T04:21:27;13.20;;;4.18;;
68449;SDS011;55434;39.570;2.652;2022-07-29T04:23:52;12.13;;;4.63;;
68449;SDS011;55434;39.570;2.652;2022-07-29T04:26:18;11.20;;;4.40;;
68449;SDS011;55434;39.570;2.652;2022-07-29T04:28:45;14.55;;;4.15;;
68449;SDS011;55434;39.570;2.652;2022-07-29T04:31:12;11.10;;;4.22;;
68449;SDS011;55434;39.570;2.652;2022-07-29T04:33:38;10.75;;;4.63;;
68449;SDS011;55434;39.570;2.652;2022-07-29T04:36:04;12.83;;;4.13;;
68449;SDS011;55434;39.570;2.652;2022-07-29T04:38:30;11.40;;;4.40;;
68449;SDS011;55434;39.570;2.652;2022-07-29T04:40:55;15.13;;;4.70;;
68449;SDS011;55434;39.570;2.652;2022-07-29T04:43:21;10.47;;;4.63;;
68449;SDS011;55434;39.570;2.652;2022-07-29T04:45:46;12.77;;;4.47;;
68449;SDS011;55434;39.570;2.652;2022-07-29T04:48:12;10.37;;;4.20;;
68449;SDS011;55434;39.570;2.652;2022-07-29T04:50:38;16.45;;;4.68;;
68449;SDS011;55434;39.570;2.652;2022-07-29T04:53:04;12.00;;;4.70;;
68449;SDS011;55434;39.570;2.652;2022-07-29T04:55:30;12.25;;;4.60;;
68449;SDS011;55434;39.570;2.652;2022-07-29T04:57:56;11.37;;;4.40;;
68449;SDS011;55434;39.570;2.652;2022-07-29T05:00:21;12.18;;;4.32;;
68449;SDS011;55434;39.570;2.652;2022-07-29T05:02:48;10.23;;;4.22;;
68449;SDS011;55434;39.570;2.652;2022-07-29T05:05:14;15.27;;;4.73;;
68449;SDS011;55434;39.570;2.652;2022-07-29T05:07:39;14.40;;;4.72;;
68449;SDS011;55434;39.570;2.652;2022-07-29T05:10:05;11.47;;;4.37;;
68449;SDS011;55434;39.570;2.652;2022-07-29T05:12:31;14.98;;;5.15;;
68449;SDS011;55434;39.570;2.652;2022-07-29T05:14:56;17.47;;;5.10;;
68449;SDS011;55434;39.570;2.652;2022-07-29T05:17:22;11.73;;;4.80;;
68449;SDS011;55434;39.570;2.652;2022-07-29T05:19:47;14.00;;;5.45;;
68449;SDS011;55434;39.570;2.652;2022-07-29T05:22:13;15.23;;;5.07;;
68449;SDS011;55434;39.570;2.652;2022-07-29T05:24:38;11.00;;;4.85;;
68449;SDS011;55434;39.570;2.652;2022-07-29T05:27:04;12.70;;;4.70;;
68449;SDS011;55434;39.570;2.652;2022-07-29T05:29:29;11.57;;;4.90;;
68449;SDS011;55434;39.570;2.652;2022-07-29T05:31:55;10.63;;;5.47;;
68449;SDS011;55434;39.570;2.652;2022-07-29T05:34:20;14.60;;;5.60;;
68449;SDS011;55434;39.570;2.652;2022-07-29T05:36:46;17.80;;;5.53;;
68449;SDS011;55434;39.570;2.652;2022-07-29T05:39:11;11.20;;;4.57;;
68449;SDS011;55434;39.570;2.652;2022-07-29T05:41:38;14.87;;;5.10;;
68449;SDS011;55434;39.570;2.652;2022-07-29T05:44:03;15.32;;;5.15;;
68449;SDS011;55434;39.570;2.652;2022-07-29T05:46:29;13.53;;;4.97;;
68449;SDS011;55434;39.570;2.652;2022-07-29T05:48:55;15.15;;;4.70;;
68449;SDS011;55434;39.570;2.652;2022-07-29T05:51:21;11.93;;;4.68;;
68449;SDS011;55434;39.570;2.652;2022-07-29T05:53:46;15.23;;;4.77;;
68449;SDS011;55434;39.570;2.652;2022-07-29T05:56:12;16.50;;;5.03;;
68449;SDS011;55434;39.570;2.652;2022-07-29T05:58:38;11.67;;;4.60;;
68449;SDS011;55434;39.570;2.652;2022-07-29T06:01:06;13.30;;;4.67;;
68449;SDS011;55434;39.570;2.652;2022-07-29T06:03:33;11.48;;;4.88;;
68449;SDS011;55434;39.570;2.652;2022-07-29T06:05:59;20.58;;;5.22;;
68449;SDS011;55434;39.570;2.652;2022-07-29T06:08:25;15.47;;;4.40;;
68449;SDS011;55434;39.570;2.652;2022-07-29T06:10:50;19.65;;;5.00;;
68449;SDS011;55434;39.570;2.652;2022-07-29T06:13:16;15.70;;;4.37;;
68449;SDS011;55434;39.570;2.652;2022-07-29T06:15:42;15.07;;;4.80;;
68449;SDS011;55434;39.570;2.652;2022-07-29T06:18:08;13.93;;;4.33;;
68449;SDS011;55434;39.570;2.652;2022-07-29T06:20:35;16.40;;;4.38;;
68449;SDS011;55434;39.570;2.652;2022-07-29T06:23:00;12.52;;;4.40;;
68449;SDS011;55434;39.570;2.652;2022-07-29T06:25:29;13.70;;;4.60;;
68449;SDS011;55434;39.570;2.652;2022-07-29T06:27:55;13.48;;;4.40;;
68449;SDS011;55434;39.570;2.652;2022-07-29T06:30:21;16.92;;;5.28;;
68449;SDS011;55434;39.570;2.652;2022-07-29T06:32:47;10.27;;;4.47;;
68449;SDS011;55434;39.570;2.652;2022-07-29T06:35:13;19.67;;;5.07;;
68449;SDS011;55434;39.570;2.652;2022-07-29T06:37:38;18.27;;;4.93;;
68449;SDS011;55434;39.570;2.652;2022-07-29T06:40:04;13.43;;;4.55;;
68449;SDS011;55434;39.570;2.652;2022-07-29T06:42:48;13.33;;;4.30;;
68449;SDS011;55434;39.570;2.652;2022-07-29T06:45:14;17.73;;;5.15;;
68449;SDS011;55434;39.570;2.652;2022-07-29T06:47:41;13.60;;;4.87;;
68449;SDS011;55434;39.570;2.652;2022-07-29T06:50:06;17.33;;;4.60;;
68449;SDS011;55434;39.570;2.652;2022-07-29T06:52:39;11.48;;;4.57;;
68449;SDS011;55434;39.570;2.652;2022-07-29T06:55:06;16.52;;;4.75;;
68449;SDS011;55434;39.570;2.652;2022-07-29T06:57:32;16.70;;;4.70;;
68449;SDS011;55434;39.570;2.652;2022-07-29T06:59:58;11.03;;;4.40;;
68449;SDS011;55434;39.570;2.652;2022-07-29T07:02:23;13.75;;;5.05;;
68449;SDS011;55434;39.570;2.652;2022-07-29T07:04:50;10.43;;;4.60;;
68449;SDS011;55434;39.570;2.652;2022-07-29T07:07:16;14.53;;;4.83;;
68449;SDS011;55434;39.570;2.652;2022-07-29T07:09:42;12.40;;;4.30;;
68449;SDS011;55434;39.570;2.652;2022-07-29T07:12:07;12.33;;;4.20;;
68449;SDS011;55434;39.570;2.652;2022-07-29T07:14:33;11.85;;;4.35;;
68449;SDS011;55434;39.570;2.652;2022-07-29T07:16:59;13.53;;;4.20;;
68449;SDS011;55434;39.570;2.652;2022-07-29T07:19:29;12.13;;;3.47;;
68449;SDS011;55434;39.570;2.652;2022-07-29T07:21:54;9.68;;;3.90;;
68449;SDS011;55434;39.570;2.652;2022-07-29T07:24:21;12.97;;;3.87;;
68449;SDS011;55434;39.570;2.652;2022-07-29T07:26:47;13.57;;;4.25;;
68449;SDS011;55434;39.570;2.652;2022-07-29T07:29:12;15.07;;;4.10;;
68449;SDS011;55434;39.570;2.652;2022-07-29T07:31:38;13.20;;;3.90;;
68449;SDS011;55434;39.570;2.652;2022-07-29T07:34:04;12.47;;;4.03;;
68449;SDS011;55434;39.570;2.652;2022-07-29T07:36:29;13.85;;;4.18;;
68449;SDS011;55434;39.570;2.652;2022-07-29T07:38:55;13.97;;;4.40;;
68449;SDS011;55434;39.570;2.652;2022-07-29T07:41:20;14.47;;;5.00;;
68449;SDS011;55434;39.570;2.652;2022-07-29T07:43:46;10.00;;;4.43;;
68449;SDS011;55434;39.570;2.652;2022-07-29T07:46:12;14.20;;;3.80;;
68449;SDS011;55434;39.570;2.652;2022-07-29T07:48:38;10.50;;;4.20;;
68449;SDS011;55434;39.570;2.652;2022-07-29T07:51:03;8.37;;;4.00;;
68449;SDS011;55434;39.570;2.652;2022-07-29T07:53:29;10.07;;;3.85;;
68449;SDS011;55434;39.570;2.652;2022-07-29T07:55:55;12.53;;;3.67;;
68449;SDS011;55434;39.570;2.652;2022-07-29T07:58:20;12.25;;;3.67;;
68449;SDS011;55434;39.570;2.652;2022-07-29T08:00:46;12.13;;;4.20;;
68449;SDS011;55434;39.570;2.652;2022-07-29T08:03:12;12.57;;;3.58;;
68449;SDS011;55434;39.570;2.652;2022-07-29T08:05:38;10.05;;;3.30;;
68449;SDS011;55434;39.570;2.652;2022-07-29T08:08:04;10.75;;;3.55;;
68449;SDS011;55434;39.570;2.652;2022-07-29T08:10:30;13.88;;;3.80;;
68449;SDS011;55434;39.570;2.652;2022-07-29T08:13:14;8.67;;;3.60;;
68449;SDS011;55434;39.570;2.652;2022-07-29T08:15:40;9.93;;;4.20;;
68449;SDS011;55434;39.570;2.652;2022-07-29T08:18:10;9.90;;;3.80;;
68449;SDS011;55434;39.570;2.652;2022-07-29T08:20:36;12.63;;;3.88;;
68449;SDS011;55434;39.570;2.652;2022-07-29T08:23:03;11.00;;;3.67;;
68449;SDS011;55434;39.570;2.652;2022-07-29T08:25:31;9.13;;;3.90;;
68449;SDS011;55434;39.570;2.652;2022-07-29T08:27:58;9.73;;;3.70;;
68449;SDS011;55434;39.570;2.652;2022-07-29T08:30:23;10.18;;;3.83;;
68449;SDS011;55434;39.570;2.652;2022-07-29T08:32:57;10.52;;;3.97;;
68449;SDS011;55434;39.570;2.652;2022-07-29T08:35:23;10.63;;;3.70;;
68449;SDS011;55434;39.570;2.652;2022-07-29T08:37:50;8.93;;;3.72;;
68449;SDS011;55434;39.570;2.652;2022-07-29T08:40:17;10.33;;;3.93;;
68449;SDS011;55434;39.570;2.652;2022-07-29T08:42:42;9.73;;;4.10;;
68449;SDS011;55434;39.570;2.652;2022-07-29T08:45:08;9.37;;;3.53;;
68449;SDS011;55434;39.570;2.652;2022-07-29T08:47:35;12.68;;;4.18;;
68449;SDS011;55434;39.570;2.652;2022-07-29T08:50:07;10.77;;;3.58;;
68449;SDS011;55434;39.570;2.652;2022-07-29T08:52:38;9.82;;;3.70;;
68449;SDS011;55434;39.570;2.652;2022-07-29T08:55:08;11.07;;;3.90;;
68449;SDS011;55434;39.570;2.652;2022-07-29T08:57:34;13.52;;;3.85;;
68449;SDS011;55434;39.570;2.652;2022-07-29T09:00:02;14.80;;;4.32;;
68449;SDS011;55434;39.570;2.652;2022-07-29T09:02:30;9.57;;;3.10;;
68449;SDS011;55434;39.570;2.652;2022-07-29T09:05:00;9.07;;;3.42;;
68449;SDS011;55434;39.570;2.652;2022-07-29T09:07:27;10.00;;;3.63;;
68449;SDS011;55434;39.570;2.652;2022-07-29T09:09:53;12.98;;;4.15;;
68449;SDS011;55434;39.570;2.652;2022-07-29T09:12:19;12.30;;;4.00;;
68449;SDS011;55434;39.570;2.652;2022-07-29T09:14:47;9.07;;;3.80;;
68449;SDS011;55434;39.570;2.652;2022-07-29T09:17:13;14.30;;;4.30;;
68449;SDS011;55434;39.570;2.652;2022-07-29T09:19:41;12.30;;;3.70;;
68449;SDS011;55434;39.570;2.652;2022-07-29T09:22:07;11.73;;;3.88;;
68449;SDS011;55434;39.570;2.652;2022-07-29T09:30:04;15.10;;;3.90;;
68449;SDS011;55434;39.570;2.652;2022-07-29T09:32:32;10.35;;;3.40;;
68449;SDS011;55434;39.570;2.652;2022-07-29T09:35:20;10.52;;;4.00;;
68449;SDS011;55434;39.570;2.652;2022-07-29T09:37:51;9.93;;;3.83;;
68449;SDS011;55434;39.570;2.652;2022-07-29T09:40:21;13.55;;;4.45;;
68449;SDS011;55434;39.570;2.652;2022-07-29T09:42:48;11.10;;;3.70;;
68449;SDS011;55434;39.570;2.652;2022-07-29T09:45:30;10.75;;;4.43;;
68449;SDS011;55434;39.570;2.652;2022-07-29T09:47:57;11.95;;;4.03;;
68449;SDS011;55434;39.570;2.652;2022-07-29T09:50:41;11.70;;;4.68;;
68449;SDS011;55434;39.570;2.652;2022-07-29T09:53:08;18.73;;;4.53;;
68449;SDS011;55434;39.570;2.652;2022-07-29T09:55:50;10.63;;;4.60;;
68449;SDS011;55434;39.570;2.652;2022-07-29T09:58:20;14.88;;;4.70;;
68449;SDS011;55434;39.570;2.652;2022-07-29T10:00:47;12.55;;;4.05;;
68449;SDS011;55434;39.570;2.652;2022-07-29T10:03:14;10.00;;;4.50;;
68449;SDS011;55434;39.570;2.652;2022-07-29T10:05:40;13.65;;;4.20;;
68449;SDS011;55434;39.570;2.652;2022-07-29T10:08:07;10.63;;;4.30;;
68449;SDS011;55434;39.570;2.652;2022-07-29T10:10:39;12.25;;;6.50;;
68449;SDS011;55434;39.570;2.652;2022-07-29T10:13:13;12.18;;;5.22;;
68449;SDS011;55434;39.570;2.652;2022-07-29T10:15:40;12.48;;;4.63;;
68449;SDS011;55434;39.570;2.652;2022-07-29T10:18:09;13.93;;;4.68;;
68449;SDS011;55434;39.570;2.652;2022-07-29T10:20:36;10.27;;;4.32;;
68449;SDS011;55434;39.570;2.652;2022-07-29T10:23:03;10.98;;;4.75;;
68449;SDS011;55434;39.570;2.652;2022-07-29T10:25:29;18.10;;;5.07;;
68449;SDS011;55434;39.570;2.652;2022-07-29T10:27:54;10.70;;;4.67;;
68449;SDS011;55434;39.570;2.652;2022-07-29T10:30:21;11.52;;;4.40;;
68449;SDS011;55434;39.570;2.652;2022-07-29T10:43:53;14.67;;;5.17;;
68449;SDS011;55434;39.570;2.652;2022-07-29T10:46:19;10.63;;;5.03;;
68449;SDS011;55434;39.570;2.652;2022-07-29T10:49:07;14.68;;;5.75;;
68449;SDS011;55434;39.570;2.652;2022-07-29T11:05:14;12.73;;;5.85;;
68449;SDS011;55434;39.570;2.652;2022-07-29T11:10:37;12.80;;;6.20;;
68449;SDS011;55434;39.570;2.652;2022-07-29T11:13:03;14.77;;;7.20;;
68449;SDS011;55434;39.570;2.652;2022-07-29T11:15:28;11.17;;;6.57;;
68449;SDS011;55434;39.570;2.652;2022-07-29T11:18:14;14.73;;;6.28;;
68449;SDS011;55434;39.570;2.652;2022-07-29T11:23:19;10.93;;;7.03;;
68449;SDS011;55434;39.570;2.652;2022-07-29T11:26:16;14.02;;;5.90;;
68449;SDS011;55434;39.570;2.652;2022-07-29T11:39:41;13.30;;;6.45;;
68449;SDS011;55434;39.570;2.652;2022-07-29T11:44:56;11.80;;;5.60;;
68449;SDS011;55434;39.570;2.652;2022-07-29T11:47:27;10.57;;;6.10;;
68449;SDS011;55434;39.570;2.652;2022-07-29T11:49:54;11.63;;;6.15;;
68449;SDS011;55434;39.570;2.652;2022-07-29T11:52:22;11.23;;;6.07;;
68449;SDS011;55434;39.570;2.652;2022-07-29T11:54:48;12.50;;;7.03;;
68449;SDS011;55434;39.570;2.652;2022-07-29T11:57:18;13.85;;;7.15;;
68449;SDS011;55434;39.570;2.652;2022-07-29T11:59:46;14.47;;;7.50;;
68449;SDS011;55434;39.570;2.652;2022-07-29T12:02:12;10.10;;;6.43;;
68449;SDS011;55434;39.570;2.652;2022-07-29T12:04:47;11.68;;;5.97;;
68449;SDS011;55434;39.570;2.652;2022-07-29T12:07:27;11.20;;;6.50;;
68449;SDS011;55434;39.570;2.652;2022-07-29T12:09:53;7.90;;;5.82;;
68449;SDS011;55434;39.570;2.652;2022-07-29T12:12:20;9.03;;;6.17;;
68449;SDS011;55434;39.570;2.652;2022-07-29T12:14:46;10.82;;;5.35;;
68449;SDS011;55434;39.570;2.652;2022-07-29T12:19:50;11.07;;;6.85;;
68449;SDS011;55434;39.570;2.652;2022-07-29T12:22:24;12.97;;;6.63;;
68449;SDS011;55434;39.570;2.652;2022-07-29T12:24:51;9.35;;;5.60;;
68449;SDS011;55434;39.570;2.652;2022-07-29T12:27:16;8.87;;;5.70;;
68449;SDS011;55434;39.570;2.652;2022-07-29T12:29:43;9.60;;;6.40;;
68449;SDS011;55434;39.570;2.652;2022-07-29T12:32:08;10.90;;;6.70;;
68449;SDS011;55434;39.570;2.652;2022-07-29T12:34:34;11.27;;;5.80;;
68449;SDS011;55434;39.570;2.652;2022-07-29T12:36:59;10.77;;;6.77;;
68449;SDS011;55434;39.570;2.652;2022-07-29T12:39:26;12.05;;;6.13;;
68449;SDS011;55434;39.570;2.652;2022-07-29T12:41:53;10.70;;;6.03;;
68449;SDS011;55434;39.570;2.652;2022-07-29T12:44:19;11.73;;;5.43;;
68449;SDS011;55434;39.570;2.652;2022-07-29T12:46:44;9.63;;;5.40;;
68449;SDS011;55434;39.570;2.652;2022-07-29T12:49:20;14.05;;;6.75;;
68449;SDS011;55434;39.570;2.652;2022-07-29T12:51:47;12.98;;;7.88;;
68449;SDS011;55434;39.570;2.652;2022-07-29T12:54:13;12.60;;;6.03;;
68449;SDS011;55434;39.570;2.652;2022-07-29T12:56:40;12.30;;;6.22;;
68449;SDS011;55434;39.570;2.652;2022-07-29T12:59:20;8.30;;;5.43;;
68449;SDS011;55434;39.570;2.652;2022-07-29T13:01:48;12.07;;;5.97;;
68449;SDS011;55434;39.570;2.652;2022-07-29T13:04:28;10.18;;;5.65;;
68449;SDS011;55434;39.570;2.652;2022-07-29T13:07:01;10.57;;;6.07;;
68449;SDS011;55434;39.570;2.652;2022-07-29T13:09:40;11.50;;;6.28;;
68449;SDS011;55434;39.570;2.652;2022-07-29T13:12:08;11.80;;;5.90;;
68449;SDS011;55434;39.570;2.652;2022-07-29T13:14:42;10.43;;;5.23;;
68449;SDS011;55434;39.570;2.652;2022-07-29T13:17:10;10.63;;;5.57;;
68449;SDS011;55434;39.570;2.652;2022-07-29T13:22:03;8.30;;;5.47;;
68449;SDS011;55434;39.570;2.652;2022-07-29T13:24:29;10.18;;;5.63;;
68449;SDS011;55434;39.570;2.652;2022-07-29T13:26:54;8.60;;;5.27;;
68449;SDS011;55434;39.570;2.652;2022-07-29T13:29:20;9.82;;;5.20;;
68449;SDS011;55434;39.570;2.652;2022-07-29T13:31:45;10.07;;;5.70;;
68449;SDS011;55434;39.570;2.652;2022-07-29T13:34:11;10.80;;;5.80;;
68449;SDS011;55434;39.570;2.652;2022-07-29T13:36:36;12.35;;;5.90;;
68449;SDS011;55434;39.570;2.652;2022-07-29T13:39:02;10.17;;;5.13;;
68449;SDS011;55434;39.570;2.652;2022-07-29T13:41:31;11.75;;;5.80;;
68449;SDS011;55434;39.570;2.652;2022-07-29T13:43:57;12.30;;;5.80;;
68449;SDS011;55434;39.570;2.652;2022-07-29T13:46:22;10.48;;;4.88;;
68449;SDS011;55434;39.570;2.652;2022-07-29T13:48:48;10.33;;;5.00;;
68449;SDS011;55434;39.570;2.652;2022-07-29T13:51:14;10.80;;;5.07;;
68449;SDS011;55434;39.570;2.652;2022-07-29T13:53:39;11.37;;;5.87;;
68449;SDS011;55434;39.570;2.652;2022-07-29T13:56:05;13.63;;;5.60;;
68449;SDS011;55434;39.570;2.652;2022-07-29T13:58:31;11.32;;;5.15;;
68449;SDS011;55434;39.570;2.652;2022-07-29T14:01:01;11.23;;;5.53;;
68449;SDS011;55434;39.570;2.652;2022-07-29T14:06:58;11.60;;;4.82;;
68449;SDS011;55434;39.570;2.652;2022-07-29T14:10:06;12.63;;;5.10;;
68449;SDS011;55434;39.570;2.652;2022-07-29T14:12:57;12.13;;;4.28;;
68449;SDS011;55434;39.570;2.652;2022-07-29T14:15:23;11.93;;;4.57;;
68449;SDS011;55434;39.570;2.652;2022-07-29T14:17:48;10.55;;;5.05;;
68449;SDS011;55434;39.570;2.652;2022-07-29T14:20:17;11.05;;;4.97;;
68449;SDS011;55434;39.570;2.652;2022-07-29T14:22:42;11.77;;;4.70;;
68449;SDS011;55434;39.570;2.652;2022-07-29T14:25:08;11.83;;;5.27;;
68449;SDS011;55434;39.570;2.652;2022-07-29T14:27:34;10.95;;;4.28;;
68449;SDS011;55434;39.570;2.652;2022-07-29T14:30:00;9.60;;;4.27;;
68449;SDS011;55434;39.570;2.652;2022-07-29T14:32:30;9.45;;;4.10;;
68449;SDS011;55434;39.570;2.652;2022-07-29T14:34:55;10.68;;;4.95;;
68449;SDS011;55434;39.570;2.652;2022-07-29T14:37:21;13.80;;;5.30;;
68449;SDS011;55434;39.570;2.652;2022-07-29T14:39:47;9.97;;;5.30;;
68449;SDS011;55434;39.570;2.652;2022-07-29T14:42:12;11.82;;;5.20;;
68449;SDS011;55434;39.570;2.652;2022-07-29T14:44:39;10.70;;;5.17;;
68449;SDS011;55434;39.570;2.652;2022-07-29T14:47:07;17.70;;;5.68;;
68449;SDS011;55434;39.570;2.652;2022-07-29T14:49:33;9.57;;;5.00;;
68449;SDS011;55434;39.570;2.652;2022-07-29T14:51:59;8.98;;;5.70;;
68449;SDS011;55434;39.570;2.652;2022-07-29T14:54:24;9.43;;;4.63;;
68449;SDS011;55434;39.570;2.652;2022-07-29T14:56:50;9.17;;;5.47;;
68449;SDS011;55434;39.570;2.652;2022-07-29T14:59:18;14.20;;;4.88;;
68449;SDS011;55434;39.570;2.652;2022-07-29T15:01:43;10.73;;;4.97;;
68449;SDS011;55434;39.570;2.652;2022-07-29T15:04:09;10.90;;;5.72;;
68449;SDS011;55434;39.570;2.652;2022-07-29T15:06:35;19.10;;;6.10;;
68449;SDS011;55434;39.570;2.652;2022-07-29T15:09:01;16.08;;;5.47;;
68449;SDS011;55434;39.570;2.652;2022-07-29T15:11:27;12.80;;;5.97;;
68449;SDS011;55434;39.570;2.652;2022-07-29T15:13:52;9.73;;;4.55;;
68449;SDS011;55434;39.570;2.652;2022-07-29T15:16:18;10.67;;;5.10;;
68449;SDS011;55434;39.570;2.652;2022-07-29T15:18:43;11.10;;;4.97;;
68449;SDS011;55434;39.570;2.652;2022-07-29T15:21:09;8.52;;;4.38;;
68449;SDS011;55434;39.570;2.652;2022-07-29T15:23:35;10.57;;;5.43;;
68449;SDS011;55434;39.570;2.652;2022-07-29T15:26:01;11.77;;;5.50;;
68449;SDS011;55434;39.570;2.652;2022-07-29T15:28:28;11.50;;;5.13;;
68449;SDS011;55434;39.570;2.652;2022-07-29T15:30:53;14.60;;;5.80;;
68449;SDS011;55434;39.570;2.652;2022-07-29T15:33:19;11.10;;;5.15;;
68449;SDS011;55434;39.570;2.652;2022-07-29T15:38:15;9.82;;;4.60;;
68449;SDS011;55434;39.570;2.652;2022-07-29T15:40:41;10.05;;;5.60;;
68449;SDS011;55434;39.570;2.652;2022-07-29T15:43:08;13.07;;;5.43;;
68449;SDS011;55434;39.570;2.652;2022-07-29T15:45:35;12.65;;;5.72;;
68449;SDS011;55434;39.570;2.652;2022-07-29T15:48:05;9.63;;;4.85;;
68449;SDS011;55434;39.570;2.652;2022-07-29T15:50:32;12.55;;;4.90;;
68449;SDS011;55434;39.570;2.652;2022-07-29T15:52:58;10.95;;;5.32;;
68449;SDS011;55434;39.570;2.652;2022-07-29T15:55:25;9.25;;;5.28;;
68449;SDS011;55434;39.570;2.652;2022-07-29T15:57:51;13.87;;;5.23;;
68449;SDS011;55434;39.570;2.652;2022-07-29T16:00:16;11.25;;;4.38;;